sensor_id;sensor_type;location;lat;lon;timestamp;temperature;humidity
27224;DHT22;14965;50.660;13.226;2023-04-25T00:02:01;5.90;99.90
27224;DHT22;14965;50.660;13.226;2023-04-25T00:04:28;5.80;99.90
27224;DHT22;14965;50.660;13.226;2023-04-25T00:06:55;5.80;99.90
27224;DHT22;14965;50.660;13.226;2023-04-25T00:09:21;5.70;99.90
27224;DHT22;14965;50.660;13.226;2023-04-25T00:11:47;5.70;99.90
27224;DHT22;14965;50.660;13.226;2023-04-25T00:14:13;5.60;99.90
27224;DHT22;14965;50.660;13.226;2023-04-25T00:16:39;5.60;99.90
27224;DHT22;14965;50.660;13.226;2023-04-25T00:19:05;5.50;99.90
27224;DHT22;14965;50.660;13.226;2023-04-25T00:21:32;5.50;99.90
27224;DHT22;14965;50.660;13.226;2023-04-25T00:23:58;5.50;99.90
27224;DHT22;14965;50.660;13.226;2023-04-25T00:26:24;5.50;99.90
27224;DHT22;14965;50.660;13.226;2023-04-25T00:28:50;5.50;99.90
27224;DHT22;14965;50.660;13.226;2023-04-25T00:31:16;5.40;99.90
27224;DHT22;14965;50.660;13.226;2023-04-25T00:33:42;5.40;99.90
27224;DHT22;14965;50.660;13.226;2023-04-25T00:36:08;5.40;99.90
27224;DHT22;14965;50.660;13.226;2023-04-25T00:38:35;5.30;99.90
27224;DHT22;14965;50.660;13.226;2023-04-25T00:41:01;5.30;99.90
27224;DHT22;14965;50.660;13.226;2023-04-25T00:43:27;5.20;99.90
27224;DHT22;14965;50.660;13.226;2023-04-25T00:45:54;5.20;99.90
27224;DHT22;14965;50.660;13.226;2023-04-25T00:48:22;5.10;99.90
27224;DHT22;14965;50.660;13.226;2023-04-25T00:50:52;5.20;99.90
27224;DHT22;14965;50.660;13.226;2023-04-25T00:53:19;5.10;99.90
27224;DHT22;14965;50.660;13.226;2023-04-25T00:55:47;5.10;99.90
27224;DHT22;14965;50.660;13.226;2023-04-25T00:58:13;5.10;99.90
27224;DHT22;14965;50.660;13.226;2023-04-25T01:00:39;5.00;99.90
27224;DHT22;14965;50.660;13.226;2023-04-25T01:03:06;4.90;99.90
27224;DHT22;14965;50.660;13.226;2023-04-25T01:05:32;4.90;99.90
27224;DHT22;14965;50.660;13.226;2023-04-25T01:07:58;4.90;99.90
27224;DHT22;14965;50.660;13.226;2023-04-25T01:10:25;4.90;99.90
27224;DHT22;14965;50.660;13.226;2023-04-25T01:12:52;4.90;99.90
27224;DHT22;14965;50.660;13.226;2023-04-25T01:15:18;4.90;99.90
27224;DHT22;14965;50.660;13.226;2023-04-25T01:17:44;4.80;99.90
27224;DHT22;14965;50.660;13.226;2023-04-25T01:20:11;4.80;99.90
27224;DHT22;14965;50.660;13.226;2023-04-25T01:22:40;4.80;99.90
27224;DHT22;14965;50.660;13.226;2023-04-25T01:25:07;4.90;99.90
27224;DHT22;14965;50.660;13.226;2023-04-25T01:27:34;5.00;99.90
27224;DHT22;14965;50.660;13.226;2023-04-25T01:30:01;5.00;99.90
27224;DHT22;14965;50.660;13.226;2023-04-25T01:32:28;5.00;99.90
27224;DHT22;14965;50.660;13.226;2023-04-25T01:34:54;5.00;99.90
27224;DHT22;14965;50.660;13.226;2023-04-25T01:37:22;5.00;99.90
27224;DHT22;14965;50.660;13.226;2023-04-25T01:39:49;5.00;99.90
27224;DHT22;14965;50.660;13.226;2023-04-25T01:42:15;5.00;99.90
27224;DHT22;14965;50.660;13.226;2023-04-25T01:44:41;5.00;99.90
27224;DHT22;14965;50.660;13.226;2023-04-25T01:47:07;5.00;99.90
27224;DHT22;14965;50.660;13.226;2023-04-25T01:49:33;5.10;99.90
27224;DHT22;14965;50.660;13.226;2023-04-25T01:51:59;5.10;99.90
27224;DHT22;14965;50.660;13.226;2023-04-25T01:54:25;5.20;99.90
27224;DHT22;14965;50.660;13.226;2023-04-25T01:56:52;5.30;99.90
27224;DHT22;14965;50.660;13.226;2023-04-25T01:59:18;5.30;99.90
27224;DHT22;14965;50.660;13.226;2023-04-25T02:01:44;5.30;99.90
27224;DHT22;14965;50.660;13.226;2023-04-25T02:04:10;5.40;99.90
27224;DHT22;14965;50.660;13.226;2023-04-25T02:06:36;5.40;99.90
27224;DHT22;14965;50.660;13.226;2023-04-25T02:09:02;5.40;99.90
27224;DHT22;14965;50.660;13.226;2023-04-25T02:11:28;5.50;99.90
27224;DHT22;14965;50.660;13.226;2023-04-25T02:13:55;5.50;99.90
27224;DHT22;14965;50.660;13.226;2023-04-25T02:16:21;5.50;99.90
27224;DHT22;14965;50.660;13.226;2023-04-25T02:18:47;5.60;99.90
27224;DHT22;14965;50.660;13.226;2023-04-25T02:21:12;5.60;99.90
27224;DHT22;14965;50.660;13.226;2023-04-25T02:23:38;5.70;99.90
27224;DHT22;14965;50.660;13.226;2023-04-25T02:26:04;5.60;99.90
27224;DHT22;14965;50.660;13.226;2023-04-25T02:28:30;5.70;99.90
27224;DHT22;14965;50.660;13.226;2023-04-25T02:30:57;5.70;99.90
27224;DHT22;14965;50.660;13.226;2023-04-25T02:33:23;5.70;99.90
27224;DHT22;14965;50.660;13.226;2023-04-25T02:35:49;5.70;99.90
27224;DHT22;14965;50.660;13.226;2023-04-25T02:38:15;5.70;99.90
27224;DHT22;14965;50.660;13.226;2023-04-25T02:40:41;5.80;99.90
27224;DHT22;14965;50.660;13.226;2023-04-25T02:43:07;5.80;99.90
27224;DHT22;14965;50.660;13.226;2023-04-25T02:45:32;5.80;99.90
27224;DHT22;14965;50.660;13.226;2023-04-25T02:48:00;5.80;99.90
27224;DHT22;14965;50.660;13.226;2023-04-25T02:50:26;5.80;99.90
27224;DHT22;14965;50.660;13.226;2023-04-25T02:52:52;5.80;99.90
27224;DHT22;14965;50.660;13.226;2023-04-25T02:55:17;5.80;99.90
27224;DHT22;14965;50.660;13.226;2023-04-25T02:57:43;5.80;99.90
27224;DHT22;14965;50.660;13.226;2023-04-25T03:00:10;5.80;99.90
27224;DHT22;14965;50.660;13.226;2023-04-25T03:02:37;5.80;99.90
27224;DHT22;14965;50.660;13.226;2023-04-25T03:05:04;5.90;99.90
27224;DHT22;14965;50.660;13.226;2023-04-25T03:07:30;5.90;99.90
27224;DHT22;14965;50.660;13.226;2023-04-25T03:09:56;5.90;99.90
27224;DHT22;14965;50.660;13.226;2023-04-25T03:12:22;6.00;99.90
27224;DHT22;14965;50.660;13.226;2023-04-25T03:14:48;6.00;99.90
27224;DHT22;14965;50.660;13.226;2023-04-25T03:17:14;6.00;99.90
27224;DHT22;14965;50.660;13.226;2023-04-25T03:19:40;6.00;99.90
27224;DHT22;14965;50.660;13.226;2023-04-25T03:22:07;6.00;99.90
27224;DHT22;14965;50.660;13.226;2023-04-25T03:24:33;6.00;99.90
27224;DHT22;14965;50.660;13.226;2023-04-25T03:26:58;6.00;99.90
27224;DHT22;14965;50.660;13.226;2023-04-25T03:29:24;6.00;99.90
27224;DHT22;14965;50.660;13.226;2023-04-25T03:31:50;6.00;99.90
27224;DHT22;14965;50.660;13.226;2023-04-25T03:34:16;6.00;99.90
27224;DHT22;14965;50.660;13.226;2023-04-25T03:36:42;6.00;99.90
27224;DHT22;14965;50.660;13.226;2023-04-25T03:39:09;6.00;99.90
27224;DHT22;14965;50.660;13.226;2023-04-25T03:41:35;6.00;99.90
27224;DHT22;14965;50.660;13.226;2023-04-25T03:44:01;6.00;99.90
27224;DHT22;14965;50.660;13.226;2023-04-25T03:46:26;6.00;99.90
27224;DHT22;14965;50.660;13.226;2023-04-25T03:48:52;6.00;99.90
27224;DHT22;14965;50.660;13.226;2023-04-25T03:51:18;6.00;99.90
27224;DHT22;14965;50.660;13.226;2023-04-25T03:53:44;6.00;99.90
27224;DHT22;14965;50.660;13.226;2023-04-25T03:56:11;5.90;99.90
27224;DHT22;14965;50.660;13.226;2023-04-25T03:58:37;5.90;99.90
27224;DHT22;14965;50.660;13.226;2023-04-25T04:01:03;5.90;99.90
27224;DHT22;14965;50.660;13.226;2023-04-25T04:03:29;5.90;99.90
27224;DHT22;14965;50.660;13.226;2023-04-25T04:05:55;5.90;99.90
27224;DHT22;14965;50.660;13.226;2023-04-25T04:08:21;5.90;99.90
27224;DHT22;14965;50.660;13.226;2023-04-25T04:10:46;5.90;99.90
27224;DHT22;14965;50.660;13.226;2023-04-25T04:13:14;5.90;99.90
27224;DHT22;14965;50.660;13.226;2023-04-25T04:15:39;5.90;99.90
27224;DHT22;14965;50.660;13.226;2023-04-25T04:18:05;6.00;99.90
27224;DHT22;14965;50.660;13.226;2023-04-25T04:20:31;6.00;99.90
27224;DHT22;14965;50.660;13.226;2023-04-25T04:22:57;6.00;99.90
27224;DHT22;14965;50.660;13.226;2023-04-25T04:25:23;6.00;99.90
27224;DHT22;14965;50.660;13.226;2023-04-25T04:27:49;6.00;99.90
27224;DHT22;14965;50.660;13.226;2023-04-25T04:30:16;6.00;99.90
27224;DHT22;14965;50.660;13.226;2023-04-25T04:32:42;6.00;99.90
27224;DHT22;14965;50.660;13.226;2023-04-25T04:35:08;6.00;99.90
27224;DHT22;14965;50.660;13.226;2023-04-25T04:37:34;6.00;99.90
27224;DHT22;14965;50.660;13.226;2023-04-25T04:40:00;6.00;99.90
27224;DHT22;14965;50.660;13.226;2023-04-25T04:42:26;6.00;99.90
27224;DHT22;14965;50.660;13.226;2023-04-25T04:44:52;6.10;99.90
27224;DHT22;14965;50.660;13.226;2023-04-25T04:47:19;6.10;99.90
27224;DHT22;14965;50.660;13.226;2023-04-25T04:49:45;6.10;99.90
27224;DHT22;14965;50.660;13.226;2023-04-25T04:52:10;6.00;99.90
27224;DHT22;14965;50.660;13.226;2023-04-25T04:54:36;6.00;99.90
27224;DHT22;14965;50.660;13.226;2023-04-25T04:57:02;6.00;99.90
27224;DHT22;14965;50.660;13.226;2023-04-25T04:59:28;6.10;99.90
27224;DHT22;14965;50.660;13.226;2023-04-25T05:01:54;6.10;99.90
27224;DHT22;14965;50.660;13.226;2023-04-25T05:04:21;6.10;99.90
27224;DHT22;14965;50.660;13.226;2023-04-25T05:06:47;6.20;99.90
27224;DHT22;14965;50.660;13.226;2023-04-25T05:09:13;6.20;99.90
27224;DHT22;14965;50.660;13.226;2023-04-25T05:11:38;6.20;99.90
27224;DHT22;14965;50.660;13.226;2023-04-25T05:14:04;6.20;99.90
27224;DHT22;14965;50.660;13.226;2023-04-25T05:16:30;6.20;99.90
27224;DHT22;14965;50.660;13.226;2023-04-25T05:18:56;6.30;99.90
27224;DHT22;14965;50.660;13.226;2023-04-25T05:21:23;6.40;99.90
27224;DHT22;14965;50.660;13.226;2023-04-25T05:23:49;6.50;99.90
27224;DHT22;14965;50.660;13.226;2023-04-25T05:26:15;6.60;99.90
27224;DHT22;14965;50.660;13.226;2023-04-25T05:28:41;6.60;99.90
27224;DHT22;14965;50.660;13.226;2023-04-25T05:31:07;6.70;99.90
27224;DHT22;14965;50.660;13.226;2023-04-25T05:33:34;6.70;99.90
27224;DHT22;14965;50.660;13.226;2023-04-25T05:36:00;6.70;99.90
27224;DHT22;14965;50.660;13.226;2023-04-25T05:38:27;6.70;99.90
27224;DHT22;14965;50.660;13.226;2023-04-25T05:40:53;6.60;99.90
27224;DHT22;14965;50.660;13.226;2023-04-25T05:43:19;6.60;99.90
27224;DHT22;14965;50.660;13.226;2023-04-25T05:45:45;6.60;99.90
27224;DHT22;14965;50.660;13.226;2023-04-25T05:48:10;6.60;99.90
27224;DHT22;14965;50.660;13.226;2023-04-25T05:50:36;6.60;99.90
27224;DHT22;14965;50.660;13.226;2023-04-25T05:53:02;6.60;99.90
27224;DHT22;14965;50.660;13.226;2023-04-25T05:55:29;6.60;99.90
27224;DHT22;14965;50.660;13.226;2023-04-25T05:57:55;6.50;99.90
27224;DHT22;14965;50.660;13.226;2023-04-25T06:00:21;6.60;99.90
27224;DHT22;14965;50.660;13.226;2023-04-25T06:02:47;6.50;99.90
27224;DHT22;14965;50.660;13.226;2023-04-25T06:05:13;6.50;99.90
27224;DHT22;14965;50.660;13.226;2023-04-25T06:07:38;6.60;99.90
27224;DHT22;14965;50.660;13.226;2023-04-25T06:10:05;6.60;99.90
27224;DHT22;14965;50.660;13.226;2023-04-25T06:12:34;6.60;99.90
27224;DHT22;14965;50.660;13.226;2023-04-25T06:14:59;6.70;99.90
27224;DHT22;14965;50.660;13.226;2023-04-25T06:17:25;6.70;99.90
27224;DHT22;14965;50.660;13.226;2023-04-25T06:19:51;6.70;99.90
27224;DHT22;14965;50.660;13.226;2023-04-25T06:22:17;6.80;99.90
27224;DHT22;14965;50.660;13.226;2023-04-25T06:24:43;6.80;99.90
27224;DHT22;14965;50.660;13.226;2023-04-25T06:27:09;6.90;99.90
27224;DHT22;14965;50.660;13.226;2023-04-25T06:29:36;7.00;99.90
27224;DHT22;14965;50.660;13.226;2023-04-25T06:32:02;7.10;99.90
27224;DHT22;14965;50.660;13.226;2023-04-25T06:34:28;7.20;99.90
27224;DHT22;14965;50.660;13.226;2023-04-25T06:36:53;7.20;99.90
27224;DHT22;14965;50.660;13.226;2023-04-25T06:39:19;7.10;99.90
27224;DHT22;14965;50.660;13.226;2023-04-25T06:41:45;7.20;99.90
27224;DHT22;14965;50.660;13.226;2023-04-25T06:44:11;7.10;99.90
27224;DHT22;14965;50.660;13.226;2023-04-25T06:46:38;7.10;99.90
27224;DHT22;14965;50.660;13.226;2023-04-25T06:49:04;7.10;99.90
27224;DHT22;14965;50.660;13.226;2023-04-25T06:51:30;7.10;99.90
27224;DHT22;14965;50.660;13.226;2023-04-25T06:53:55;7.10;99.90
27224;DHT22;14965;50.660;13.226;2023-04-25T06:56:21;7.00;99.90
27224;DHT22;14965;50.660;13.226;2023-04-25T06:58:47;7.00;99.90
27224;DHT22;14965;50.660;13.226;2023-04-25T07:01:13;7.00;99.90
27224;DHT22;14965;50.660;13.226;2023-04-25T07:03:40;7.00;99.90
27224;DHT22;14965;50.660;13.226;2023-04-25T07:06:06;7.00;99.90
27224;DHT22;14965;50.660;13.226;2023-04-25T07:08:32;7.00;99.90
27224;DHT22;14965;50.660;13.226;2023-04-25T07:10:58;7.00;99.90
27224;DHT22;14965;50.660;13.226;2023-04-25T07:13:24;6.90;99.90
27224;DHT22;14965;50.660;13.226;2023-04-25T07:15:49;7.00;99.90
27224;DHT22;14965;50.660;13.226;2023-04-25T07:18:15;6.80;99.90
27224;DHT22;14965;50.660;13.226;2023-04-25T07:20:43;6.60;99.90
27224;DHT22;14965;50.660;13.226;2023-04-25T07:23:09;6.30;99.90
27224;DHT22;14965;50.660;13.226;2023-04-25T07:25:34;6.10;99.90
27224;DHT22;14965;50.660;13.226;2023-04-25T07:28:00;6.00;99.90
27224;DHT22;14965;50.660;13.226;2023-04-25T07:30:26;5.90;99.90
27224;DHT22;14965;50.660;13.226;2023-04-25T07:32:52;5.80;99.90
27224;DHT22;14965;50.660;13.226;2023-04-25T07:35:18;5.70;99.90
27224;DHT22;14965;50.660;13.226;2023-04-25T07:37:45;5.70;99.90
27224;DHT22;14965;50.660;13.226;2023-04-25T07:40:11;5.60;99.90
27224;DHT22;14965;50.660;13.226;2023-04-25T07:42:37;5.60;99.90
27224;DHT22;14965;50.660;13.226;2023-04-25T07:45:04;5.40;99.90
27224;DHT22;14965;50.660;13.226;2023-04-25T07:47:30;5.30;99.90
27224;DHT22;14965;50.660;13.226;2023-04-25T07:49:56;5.20;99.90
27224;DHT22;14965;50.660;13.226;2023-04-25T07:52:22;5.10;99.90
27224;DHT22;14965;50.660;13.226;2023-04-25T07:54:49;5.10;99.90
27224;DHT22;14965;50.660;13.226;2023-04-25T07:57:15;5.10;99.90
27224;DHT22;14965;50.660;13.226;2023-04-25T07:59:41;5.20;99.90
27224;DHT22;14965;50.660;13.226;2023-04-25T08:02:06;5.20;99.90
27224;DHT22;14965;50.660;13.226;2023-04-25T08:04:32;5.40;99.90
27224;DHT22;14965;50.660;13.226;2023-04-25T08:06:58;5.50;99.90
27224;DHT22;14965;50.660;13.226;2023-04-25T08:09:24;5.80;99.90
27224;DHT22;14965;50.660;13.226;2023-04-25T08:11:51;5.90;99.90
27224;DHT22;14965;50.660;13.226;2023-04-25T08:14:17;6.00;99.90
27224;DHT22;14965;50.660;13.226;2023-04-25T08:16:43;6.10;99.90
27224;DHT22;14965;50.660;13.226;2023-04-25T08:19:09;6.40;99.90
27224;DHT22;14965;50.660;13.226;2023-04-25T08:21:35;6.80;99.90
27224;DHT22;14965;50.660;13.226;2023-04-25T08:24:01;7.00;99.90
27224;DHT22;14965;50.660;13.226;2023-04-25T08:26:28;7.50;99.90
27224;DHT22;14965;50.660;13.226;2023-04-25T08:28:55;7.80;99.90
27224;DHT22;14965;50.660;13.226;2023-04-25T08:31:21;7.90;99.90
27224;DHT22;14965;50.660;13.226;2023-04-25T08:33:47;7.90;99.90
27224;DHT22;14965;50.660;13.226;2023-04-25T08:36:13;7.80;99.90
27224;DHT22;14965;50.660;13.226;2023-04-25T08:38:39;7.70;99.90
27224;DHT22;14965;50.660;13.226;2023-04-25T08:41:05;7.80;99.90
27224;DHT22;14965;50.660;13.226;2023-04-25T08:43:32;7.70;99.90
27224;DHT22;14965;50.660;13.226;2023-04-25T08:46:01;7.60;99.90
27224;DHT22;14965;50.660;13.226;2023-04-25T08:48:28;7.60;99.90
27224;DHT22;14965;50.660;13.226;2023-04-25T08:50:55;7.60;99.90
27224;DHT22;14965;50.660;13.226;2023-04-25T08:53:25;7.80;99.90
27224;DHT22;14965;50.660;13.226;2023-04-25T08:55:53;7.80;99.90
27224;DHT22;14965;50.660;13.226;2023-04-25T08:58:21;7.90;99.90
27224;DHT22;14965;50.660;13.226;2023-04-25T09:00:47;8.00;99.90
27224;DHT22;14965;50.660;13.226;2023-04-25T09:03:14;8.10;99.90
27224;DHT22;14965;50.660;13.226;2023-04-25T09:05:41;8.20;99.90
27224;DHT22;14965;50.660;13.226;2023-04-25T09:08:07;8.20;99.90
27224;DHT22;14965;50.660;13.226;2023-04-25T09:10:33;8.10;99.90
27224;DHT22;14965;50.660;13.226;2023-04-25T09:13:04;8.00;99.90
27224;DHT22;14965;50.660;13.226;2023-04-25T09:15:32;7.80;99.90
27224;DHT22;14965;50.660;13.226;2023-04-25T09:17:59;7.60;99.90
27224;DHT22;14965;50.660;13.226;2023-04-25T09:20:26;7.40;99.90
27224;DHT22;14965;50.660;13.226;2023-04-25T09:23:01;7.30;99.90
27224;DHT22;14965;50.660;13.226;2023-04-25T09:25:34;7.30;99.90
27224;DHT22;14965;50.660;13.226;2023-04-25T09:28:03;7.50;99.90
27224;DHT22;14965;50.660;13.226;2023-04-25T09:30:31;7.90;99.90
27224;DHT22;14965;50.660;13.226;2023-04-25T09:43:49;8.10;99.90
27224;DHT22;14965;50.660;13.226;2023-04-25T09:46:24;8.00;99.90
27224;DHT22;14965;50.660;13.226;2023-04-25T09:49:15;8.10;99.90
27224;DHT22;14965;50.660;13.226;2023-04-25T09:55:20;8.10;99.90
27224;DHT22;14965;50.660;13.226;2023-04-25T13:31:31;6.20;99.90
27224;DHT22;14965;50.660;13.226;2023-04-25T13:33:57;6.10;99.90
27224;DHT22;14965;50.660;13.226;2023-04-25T13:36:34;6.00;99.90
27224;DHT22;14965;50.660;13.226;2023-04-25T13:39:04;6.00;99.90
27224;DHT22;14965;50.660;13.226;2023-04-25T14:03:07;5.80;99.90
27224;DHT22;14965;50.660;13.226;2023-04-25T14:09:21;6.10;99.90
27224;DHT22;14965;50.660;13.226;2023-04-25T14:11:47;6.10;99.90
27224;DHT22;14965;50.660;13.226;2023-04-25T14:14:12;6.20;99.90
27224;DHT22;14965;50.660;13.226;2023-04-25T14:16:40;6.30;99.90
27224;DHT22;14965;50.660;13.226;2023-04-25T14:19:05;6.50;99.90
27224;DHT22;14965;50.660;13.226;2023-04-25T14:21:31;6.50;99.90
27224;DHT22;14965;50.660;13.226;2023-04-25T14:23:57;6.50;99.90
27224;DHT22;14965;50.660;13.226;2023-04-25T14:26:23;6.60;99.90
27224;DHT22;14965;50.660;13.226;2023-04-25T14:28:51;6.50;99.90
27224;DHT22;14965;50.660;13.226;2023-04-25T14:31:17;6.50;99.90
27224;DHT22;14965;50.660;13.226;2023-04-25T14:33:45;6.60;99.90
27224;DHT22;14965;50.660;13.226;2023-04-25T14:36:11;6.80;99.90
27224;DHT22;14965;50.660;13.226;2023-04-25T14:38:36;6.90;99.90
27224;DHT22;14965;50.660;13.226;2023-04-25T14:41:03;7.00;99.90
27224;DHT22;14965;50.660;13.226;2023-04-25T14:43:29;7.00;99.90
27224;DHT22;14965;50.660;13.226;2023-04-25T14:45:55;7.10;99.90
27224;DHT22;14965;50.660;13.226;2023-04-25T14:48:20;7.20;99.90
27224;DHT22;14965;50.660;13.226;2023-04-25T14:50:48;7.30;99.90
27224;DHT22;14965;50.660;13.226;2023-04-25T14:53:14;7.30;99.90
27224;DHT22;14965;50.660;13.226;2023-04-25T14:55:40;7.30;99.90
27224;DHT22;14965;50.660;13.226;2023-04-25T14:58:08;7.30;99.90
27224;DHT22;14965;50.660;13.226;2023-04-25T15:00:34;7.30;99.90
27224;DHT22;14965;50.660;13.226;2023-04-25T15:03:00;7.30;99.90
27224;DHT22;14965;50.660;13.226;2023-04-25T15:05:26;7.30;99.90
27224;DHT22;14965;50.660;13.226;2023-04-25T15:07:53;7.30;99.90
27224;DHT22;14965;50.660;13.226;2023-04-25T15:10:19;7.20;99.90
27224;DHT22;14965;50.660;13.226;2023-04-25T15:12:47;7.20;99.90
27224;DHT22;14965;50.660;13.226;2023-04-25T15:15:14;7.20;99.90
27224;DHT22;14965;50.660;13.226;2023-04-25T15:17:41;7.20;99.90
27224;DHT22;14965;50.660;13.226;2023-04-25T15:20:09;7.20;99.90
27224;DHT22;14965;50.660;13.226;2023-04-25T15:22:36;7.20;99.90
27224;DHT22;14965;50.660;13.226;2023-04-25T15:25:04;7.10;99.90
27224;DHT22;14965;50.660;13.226;2023-04-25T15:27:31;7.00;99.90
27224;DHT22;14965;50.660;13.226;2023-04-25T15:29:57;6.80;99.90
27224;DHT22;14965;50.660;13.226;2023-04-25T15:32:22;6.20;99.90
27224;DHT22;14965;50.660;13.226;2023-04-25T15:34:48;5.70;99.90
27224;DHT22;14965;50.660;13.226;2023-04-25T15:37:14;5.60;99.90
27224;DHT22;14965;50.660;13.226;2023-04-25T15:39:40;5.40;99.90
27224;DHT22;14965;50.660;13.226;2023-04-25T15:42:07;5.40;99.90
27224;DHT22;14965;50.660;13.226;2023-04-25T15:44:33;5.40;99.90
27224;DHT22;14965;50.660;13.226;2023-04-25T15:46:59;5.40;99.90
27224;DHT22;14965;50.660;13.226;2023-04-25T15:49:25;5.50;99.90
27224;DHT22;14965;50.660;13.226;2023-04-25T15:51:51;5.40;99.90
27224;DHT22;14965;50.660;13.226;2023-04-25T15:54:17;5.40;99.90
27224;DHT22;14965;50.660;13.226;2023-04-25T15:56:43;5.40;99.90
27224;DHT22;14965;50.660;13.226;2023-04-25T15:59:10;5.50;99.90
27224;DHT22;14965;50.660;13.226;2023-04-25T16:01:36;5.60;99.90
27224;DHT22;14965;50.660;13.226;2023-04-25T16:04:02;5.70;99.90
27224;DHT22;14965;50.660;13.226;2023-04-25T16:06:28;5.80;99.90
27224;DHT22;14965;50.660;13.226;2023-04-25T16:08:54;5.80;99.90
27224;DHT22;14965;50.660;13.226;2023-04-25T16:11:21;5.90;99.90
27224;DHT22;14965;50.660;13.226;2023-04-25T16:13:47;6.00;99.90
27224;DHT22;14965;50.660;13.226;2023-04-25T16:16:14;5.90;99.90
27224;DHT22;14965;50.660;13.226;2023-04-25T16:18:40;5.90;99.90
27224;DHT22;14965;50.660;13.226;2023-04-25T16:21:06;5.90;99.90
27224;DHT22;14965;50.660;13.226;2023-04-25T16:23:32;5.90;99.90
27224;DHT22;14965;50.660;13.226;2023-04-25T16:25:58;5.90;99.90
27224;DHT22;14965;50.660;13.226;2023-04-25T16:28:25;5.90;99.90
27224;DHT22;14965;50.660;13.226;2023-04-25T16:30:51;5.90;99.90
27224;DHT22;14965;50.660;13.226;2023-04-25T16:33:18;6.10;99.90
27224;DHT22;14965;50.660;13.226;2023-04-25T16:35:44;6.20;99.90
27224;DHT22;14965;50.660;13.226;2023-04-25T16:38:09;6.30;99.90
27224;DHT22;14965;50.660;13.226;2023-04-25T16:40:35;6.40;99.90
27224;DHT22;14965;50.660;13.226;2023-04-25T16:43:01;6.40;99.90
27224;DHT22;14965;50.660;13.226;2023-04-25T16:45:27;6.40;99.90
27224;DHT22;14965;50.660;13.226;2023-04-25T16:47:53;6.30;99.90
27224;DHT22;14965;50.660;13.226;2023-04-25T16:50:20;6.20;99.90
27224;DHT22;14965;50.660;13.226;2023-04-25T16:52:46;6.10;99.90
27224;DHT22;14965;50.660;13.226;2023-04-25T16:55:12;6.10;99.90
27224;DHT22;14965;50.660;13.226;2023-04-25T16:57:38;5.90;99.90
27224;DHT22;14965;50.660;13.226;2023-04-25T17:00:05;5.80;99.90
27224;DHT22;14965;50.660;13.226;2023-04-25T17:02:31;5.80;99.90
27224;DHT22;14965;50.660;13.226;2023-04-25T17:04:57;5.80;99.90
27224;DHT22;14965;50.660;13.226;2023-04-25T17:07:24;5.90;99.90
27224;DHT22;14965;50.660;13.226;2023-04-25T17:09:50;5.90;99.90
27224;DHT22;14965;50.660;13.226;2023-04-25T17:12:16;5.90;99.90
27224;DHT22;14965;50.660;13.226;2023-04-25T17:14:42;5.90;99.90
27224;DHT22;14965;50.660;13.226;2023-04-25T17:17:08;5.90;99.90
27224;DHT22;14965;50.660;13.226;2023-04-25T17:19:34;5.90;99.90
27224;DHT22;14965;50.660;13.226;2023-04-25T17:22:00;5.90;99.90
27224;DHT22;14965;50.660;13.226;2023-04-25T17:24:27;5.90;99.90
27224;DHT22;14965;50.660;13.226;2023-04-25T17:26:53;5.80;99.90
27224;DHT22;14965;50.660;13.226;2023-04-25T17:29:18;5.80;99.90
27224;DHT22;14965;50.660;13.226;2023-04-25T17:31:44;5.70;99.90
27224;DHT22;14965;50.660;13.226;2023-04-25T17:34:11;5.70;99.90
27224;DHT22;14965;50.660;13.226;2023-04-25T17:36:37;5.70;99.90
27224;DHT22;14965;50.660;13.226;2023-04-25T17:39:03;5.70;99.90
27224;DHT22;14965;50.660;13.226;2023-04-25T17:41:30;5.70;99.90
27224;DHT22;14965;50.660;13.226;2023-04-25T17:43:56;5.70;99.90
27224;DHT22;14965;50.660;13.226;2023-04-25T17:46:22;5.70;99.90
27224;DHT22;14965;50.660;13.226;2023-04-25T17:48:48;5.60;99.90
27224;DHT22;14965;50.660;13.226;2023-04-25T17:51:14;5.60;99.90
27224;DHT22;14965;50.660;13.226;2023-04-25T17:53:40;5.60;99.90
27224;DHT22;14965;50.660;13.226;2023-04-25T17:56:05;5.50;99.90
27224;DHT22;14965;50.660;13.226;2023-04-25T17:58:33;5.50;99.90
27224;DHT22;14965;50.660;13.226;2023-04-25T18:00:58;5.60;99.90
27224;DHT22;14965;50.660;13.226;2023-04-25T18:03:24;5.60;99.90
27224;DHT22;14965;50.660;13.226;2023-04-25T18:05:50;5.60;99.90
27224;DHT22;14965;50.660;13.226;2023-04-25T18:08:16;5.60;99.90
27224;DHT22;14965;50.660;13.226;2023-04-25T18:10:42;5.50;99.90
27224;DHT22;14965;50.660;13.226;2023-04-25T18:13:08;5.50;99.90
27224;DHT22;14965;50.660;13.226;2023-04-25T18:15:35;5.50;99.90
27224;DHT22;14965;50.660;13.226;2023-04-25T18:18:01;5.60;99.90
27224;DHT22;14965;50.660;13.226;2023-04-25T18:20:26;5.50;99.90
27224;DHT22;14965;50.660;13.226;2023-04-25T18:22:52;5.60;99.90
27224;DHT22;14965;50.660;13.226;2023-04-25T18:25:18;5.50;99.90
27224;DHT22;14965;50.660;13.226;2023-04-25T18:27:44;5.50;99.90
27224;DHT22;14965;50.660;13.226;2023-04-25T18:30:11;5.50;99.90
27224;DHT22;14965;50.660;13.226;2023-04-25T18:32:38;5.50;99.90
27224;DHT22;14965;50.660;13.226;2023-04-25T18:35:05;5.40;99.90
27224;DHT22;14965;50.660;13.226;2023-04-25T18:37:31;5.40;99.90
27224;DHT22;14965;50.660;13.226;2023-04-25T18:39:57;5.40;99.90
27224;DHT22;14965;50.660;13.226;2023-04-25T18:42:23;5.30;99.90
27224;DHT22;14965;50.660;13.226;2023-04-25T18:44:48;5.30;99.90
27224;DHT22;14965;50.660;13.226;2023-04-25T18:47:15;5.20;99.90
27224;DHT22;14965;50.660;13.226;2023-04-25T18:49:43;5.10;99.90
27224;DHT22;14965;50.660;13.226;2023-04-25T18:52:10;5.10;99.90
27224;DHT22;14965;50.660;13.226;2023-04-25T18:54:35;5.20;99.90
27224;DHT22;14965;50.660;13.226;2023-04-25T18:57:02;5.10;99.90
27224;DHT22;14965;50.660;13.226;2023-04-25T18:59:28;5.10;99.90
27224;DHT22;14965;50.660;13.226;2023-04-25T19:01:53;5.10;99.90
27224;DHT22;14965;50.660;13.226;2023-04-25T19:04:19;5.10;99.90
27224;DHT22;14965;50.660;13.226;2023-04-25T19:06:47;5.00;99.90
27224;DHT22;14965;50.660;13.226;2023-04-25T19:09:13;5.00;99.90
27224;DHT22;14965;50.660;13.226;2023-04-25T19:11:38;5.00;99.90
27224;DHT22;14965;50.660;13.226;2023-04-25T19:14:04;4.90;99.90
27224;DHT22;14965;50.660;13.226;2023-04-25T19:16:30;4.80;99.90
27224;DHT22;14965;50.660;13.226;2023-04-25T19:18:56;4.80;99.90
27224;DHT22;14965;50.660;13.226;2023-04-25T19:21:22;4.70;99.90
27224;DHT22;14965;50.660;13.226;2023-04-25T19:23:49;4.70;99.90
27224;DHT22;14965;50.660;13.226;2023-04-25T19:26:15;4.60;99.90
27224;DHT22;14965;50.660;13.226;2023-04-25T19:28:42;4.60;99.90
27224;DHT22;14965;50.660;13.226;2023-04-25T19:31:08;4.50;99.90
27224;DHT22;14965;50.660;13.226;2023-04-25T19:33:34;4.40;99.90
27224;DHT22;14965;50.660;13.226;2023-04-25T19:36:00;4.30;99.90
27224;DHT22;14965;50.660;13.226;2023-04-25T19:38:26;4.30;99.90